createdAt,value
2022-07-28T00:00:55.138Z,4.40
2022-07-28T00:03:00.985Z,3.95
2022-07-28T00:05:05.413Z,3.67
2022-07-28T00:07:09.679Z,5.80
2022-07-28T00:09:14.312Z,6.57
2022-07-28T00:11:18.324Z,1.95
2022-07-28T00:13:22.927Z,5.53
2022-07-28T00:15:27.430Z,5.88
2022-07-28T00:17:32.009Z,2.45
2022-07-28T00:19:38.316Z,2.75
2022-07-28T00:21:42.544Z,3.10
2022-07-28T00:23:47.018Z,2.90
2022-07-28T00:25:51.131Z,3.90
2022-07-28T00:27:55.441Z,2.58
2022-07-28T00:29:59.549Z,4.18
2022-07-28T00:32:03.796Z,2.58
2022-07-28T00:34:09.033Z,4.93
2022-07-28T00:36:15.042Z,3.22
2022-07-28T00:38:19.496Z,4.32
2022-07-28T00:40:47.793Z,4.95
2022-07-28T00:42:51.649Z,7.18
2022-07-28T00:44:56.757Z,3.70
2022-07-28T00:47:01.103Z,5.85
2022-07-28T00:49:05.534Z,2.95
2022-07-28T00:51:10.464Z,3.70
2022-07-28T00:53:16.010Z,5.60
2022-07-28T00:55:20.258Z,3.42
2022-07-28T00:57:23.719Z,2.90
2022-07-28T00:59:27.874Z,5.57
2022-07-28T01:01:31.543Z,7.20
2022-07-28T01:03:37.628Z,3.55
2022-07-28T01:05:49.566Z,3.38
2022-07-28T01:08:02.668Z,3.33
2022-07-28T01:10:12.527Z,3.72
2022-07-28T01:12:25.294Z,7.50
2022-07-28T01:14:36.424Z,2.20
2022-07-28T01:16:46.631Z,3.65
2022-07-28T01:18:54.958Z,4.72
2022-07-28T01:21:03.624Z,4.35
2022-07-28T01:23:30.805Z,5.30
2022-07-28T01:25:48.579Z,3.83
2022-07-28T01:28:05.018Z,5.28
2022-07-28T01:30:13.560Z,2.17
2022-07-28T01:32:22.219Z,3.33
2022-07-28T01:34:32.166Z,4.60
2022-07-28T01:36:41.170Z,4.05
2022-07-28T01:38:47.557Z,3.97
2022-07-28T01:40:53.995Z,3.80
2022-07-28T01:43:01.361Z,2.20
2022-07-28T01:45:08.270Z,2.28
2022-07-28T01:47:12.505Z,2.83
2022-07-28T01:49:19.530Z,2.58
2022-07-28T01:51:26.548Z,4.47
2022-07-28T01:53:37.810Z,4.97
2022-07-28T01:55:44.835Z,4.47
2022-07-28T01:57:50.718Z,5.30
2022-07-28T01:59:56.326Z,3.40
2022-07-28T02:02:01.491Z,3.15
2022-07-28T02:04:06.859Z,3.65
2022-07-28T02:06:13.634Z,2.72
2022-07-28T02:08:20.333Z,5.07
2022-07-28T02:10:26.796Z,3.83
2022-07-28T02:12:29.879Z,6.03
2022-07-28T02:14:36.469Z,3.65
2022-07-28T02:16:43.027Z,3.25
2022-07-28T02:18:48.367Z,4.93
2022-07-28T02:20:53.540Z,2.97
2022-07-28T02:22:59.648Z,3.28
2022-07-28T02:25:03.928Z,3.05
2022-07-28T02:27:13.184Z,2.55
2022-07-28T02:29:48.077Z,5.55
2022-07-28T02:31:51.827Z,2.72
2022-07-28T02:34:02.410Z,5.95
2022-07-28T02:36:11.482Z,5.78
2022-07-28T02:38:24.179Z,4.65
2022-07-28T02:40:32.597Z,3.42
2022-07-28T02:42:38.071Z,3.47
2022-07-28T02:44:45.265Z,3.85
2022-07-28T02:46:52.991Z,4.28
2022-07-28T02:49:07.013Z,4.50
2022-07-28T02:51:13.594Z,2.33
2022-07-28T02:53:18.923Z,3.90
2022-07-28T02:55:26.117Z,6.05
2022-07-28T02:57:32.871Z,2.95
2022-07-28T02:59:37.930Z,4.70
2022-07-28T03:01:45.397Z,4.20
2022-07-28T03:03:51.271Z,2.28
2022-07-28T03:05:59.811Z,3.47
2022-07-28T03:08:04.539Z,3.80
2022-07-28T03:10:09.950Z,5.18
2022-07-28T03:12:16.518Z,9.48
2022-07-28T03:14:21.201Z,2.35
2022-07-28T03:16:25.465Z,2.03
2022-07-28T03:18:29.984Z,4.13
2022-07-28T03:20:35.176Z,3.33
2022-07-28T03:22:39.991Z,3.38
2022-07-28T03:24:48.924Z,2.92
2022-07-28T03:26:59.742Z,3.83
2022-07-28T03:29:06.275Z,4.70
2022-07-28T03:31:14.485Z,6.85
2022-07-28T03:33:20.312Z,2.67
2022-07-28T03:35:26.138Z,2.70
2022-07-28T03:37:35.832Z,4.75
2022-07-28T03:39:47.361Z,2.20
2022-07-28T03:41:54.038Z,2.80
2022-07-28T03:43:58.887Z,2.50
2022-07-28T03:46:07.597Z,2.88
2022-07-28T03:48:15.813Z,1.90
2022-07-28T03:50:20.352Z,2.40
2022-07-28T03:52:24.743Z,2.85
2022-07-28T03:54:30.488Z,3.05
2022-07-28T03:56:34.981Z,3.55
2022-07-28T03:58:39.286Z,1.83
2022-07-28T04:00:43.540Z,5.00
2022-07-28T04:02:49.673Z,3.00
2022-07-28T04:04:53.937Z,2.67
2022-07-28T04:06:58.226Z,1.80
2022-07-28T04:09:02.515Z,2.88
2022-07-28T04:11:07.554Z,2.55
2022-07-28T04:13:12.681Z,3.03
2022-07-28T04:15:17.562Z,5.80
2022-07-28T04:17:21.882Z,2.72
2022-07-28T04:19:27.680Z,2.50
2022-07-28T04:21:32.184Z,3.08
2022-07-28T04:23:36.197Z,4.30
2022-07-28T04:25:40.471Z,3.33
2022-07-28T04:27:45.650Z,2.47
2022-07-28T04:29:49.996Z,3.60
2022-07-28T04:31:54.167Z,3.42
2022-07-28T04:34:00.453Z,5.22
2022-07-28T04:36:06.631Z,4.70
2022-07-28T04:38:14.277Z,4.75
2022-07-28T04:40:20.062Z,7.90
2022-07-28T04:42:24.426Z,4.57
2022-07-28T04:44:28.385Z,4.60
2022-07-28T04:46:32.508Z,3.95
2022-07-28T04:48:36.744Z,1.85
2022-07-28T04:50:42.580Z,4.55
2022-07-28T04:52:49.809Z,2.05
2022-07-28T04:54:54.058Z,4.72
2022-07-28T04:56:58.567Z,2.33
2022-07-28T04:59:05.211Z,2.90
2022-07-28T05:01:10.276Z,2.28
2022-07-28T05:03:14.757Z,4.95
2022-07-28T05:05:21.247Z,1.90
2022-07-28T05:07:25.767Z,4.20
2022-07-28T05:09:32.046Z,3.22
2022-07-28T05:11:36.701Z,5.65
2022-07-28T05:13:41.494Z,2.88
2022-07-28T05:15:46.429Z,4.90
2022-07-28T05:17:50.714Z,2.17
2022-07-28T05:19:55.464Z,5.03
2022-07-28T05:21:59.466Z,3.42
2022-07-28T05:24:03.936Z,6.18
2022-07-28T05:26:09.354Z,6.15
2022-07-28T05:28:14.086Z,3.00
2022-07-28T05:30:19.326Z,6.35
2022-07-28T05:32:23.857Z,6.15
2022-07-28T05:34:28.263Z,3.25
2022-07-28T05:36:32.482Z,4.70
2022-07-28T05:38:36.768Z,3.38
2022-07-28T05:40:41.504Z,4.80
2022-07-28T05:42:48.174Z,6.85
2022-07-28T05:44:52.291Z,5.53
2022-07-28T05:46:56.346Z,4.10
2022-07-28T05:49:00.668Z,3.15
2022-07-28T05:51:05.728Z,3.92
2022-07-28T05:53:09.868Z,3.00
2022-07-28T05:55:14.320Z,2.25
2022-07-28T05:57:18.732Z,3.78
2022-07-28T05:59:24.447Z,6.28
2022-07-28T06:01:28.490Z,12.60
2022-07-28T06:03:41.542Z,6.50
2022-07-28T06:06:14.392Z,4.65
2022-07-28T06:08:10.772Z,6.13
2022-07-28T06:10:16.686Z,4.80
2022-07-28T06:12:21.381Z,9.00
2022-07-28T06:14:27.089Z,3.78
2022-07-28T06:16:31.503Z,5.25
2022-07-28T06:18:35.920Z,6.05
2022-07-28T06:20:40.050Z,7.85
2022-07-28T06:22:45.770Z,4.30
2022-07-28T06:24:50.120Z,4.78
2022-07-28T06:26:54.199Z,11.43
2022-07-28T06:28:57.802Z,6.07
2022-07-28T06:31:02.863Z,3.05
2022-07-28T06:33:08.198Z,3.40
2022-07-28T06:35:14.945Z,1.92
2022-07-28T06:37:19.039Z,2.55
2022-07-28T06:39:22.844Z,7.57
2022-07-28T06:41:26.674Z,3.85
2022-07-28T06:43:30.686Z,6.15
2022-07-28T06:45:34.726Z,6.03
2022-07-28T06:47:45.824Z,3.15
2022-07-28T06:49:51.695Z,2.78
2022-07-28T06:51:55.334Z,3.72
2022-07-28T06:53:59.713Z,1.65
2022-07-28T06:56:05.419Z,3.88
2022-07-28T06:58:10.171Z,3.70
2022-07-28T07:00:14.702Z,2.92
2022-07-28T07:02:19.206Z,5.38
2022-07-28T07:04:24.390Z,3.08
2022-07-28T07:06:28.065Z,4.65
2022-07-28T07:08:31.832Z,4.13
2022-07-28T07:10:36.378Z,1.63
2022-07-28T07:12:40.512Z,3.72
2022-07-28T07:14:44.066Z,2.58
2022-07-28T07:16:47.865Z,3.75
2022-07-28T07:18:53.238Z,1.50
2022-07-28T07:20:59.743Z,2.95
2022-07-28T07:23:03.438Z,2.85
2022-07-28T07:25:10.787Z,4.32
2022-07-28T07:27:14.517Z,3.58
2022-07-28T07:29:18.286Z,6.20
2022-07-28T07:31:22.867Z,1.25
2022-07-28T07:33:26.566Z,6.40
2022-07-28T07:35:30.451Z,2.38
2022-07-28T07:37:35.688Z,3.47
2022-07-28T07:39:39.426Z,2.85
2022-07-28T07:41:43.541Z,1.83
2022-07-28T07:43:48.352Z,5.82
2022-07-28T07:45:52.097Z,2.95
2022-07-28T07:47:55.714Z,2.47
2022-07-28T07:50:01.850Z,4.13
2022-07-28T07:52:07.870Z,8.80
2022-07-28T07:54:13.223Z,2.63
2022-07-28T07:56:18.577Z,5.28
2022-07-28T07:58:22.842Z,6.20
2022-07-28T08:00:29.282Z,4.15
2022-07-28T08:02:33.183Z,8.05
2022-07-28T08:04:37.072Z,5.88
2022-07-28T08:06:41.389Z,6.35
2022-07-28T08:08:48.495Z,4.85
2022-07-28T08:10:54.632Z,3.03
2022-07-28T08:12:58.526Z,8.77
2022-07-28T08:15:02.302Z,9.40
2022-07-28T08:17:06.402Z,8.75
2022-07-28T08:19:10.408Z,4.53
2022-07-28T08:21:16.469Z,3.30
2022-07-28T08:23:26.051Z,5.28
2022-07-28T08:25:30.213Z,5.25
2022-07-28T08:27:36.975Z,4.45
2022-07-28T08:29:40.559Z,9.48
2022-07-28T08:31:44.465Z,4.53
2022-07-28T08:33:54.306Z,5.60
2022-07-28T08:35:58.544Z,6.95
2022-07-28T08:38:02.359Z,3.88
2022-07-28T08:40:09.314Z,3.55
2022-07-28T08:42:17.119Z,8.82
2022-07-28T08:44:26.895Z,4.90
2022-07-28T08:46:36.042Z,4.45
2022-07-28T08:48:40.450Z,4.55
2022-07-28T08:50:46.011Z,8.55
2022-07-28T08:52:52.701Z,7.85
2022-07-28T08:54:59.196Z,7.45
2022-07-28T08:57:04.436Z,4.25
2022-07-28T08:59:09.107Z,4.78
2022-07-28T09:01:14.409Z,5.70
2022-07-28T09:03:19.434Z,6.18
2022-07-28T09:05:24.338Z,7.20
2022-07-28T09:07:29.470Z,5.93
2022-07-28T09:09:34.221Z,3.80
2022-07-28T09:11:38.474Z,5.63
2022-07-28T09:13:42.345Z,7.35
2022-07-28T09:15:47.553Z,6.32
2022-07-28T09:17:53.404Z,7.20
2022-07-28T09:19:57.430Z,5.80
2022-07-28T09:22:02.064Z,4.43
2022-07-28T09:24:06.818Z,4.60
2022-07-28T09:26:12.530Z,4.03
2022-07-28T09:28:20.137Z,8.18
2022-07-28T09:30:32.005Z,7.60
2022-07-28T09:32:36.266Z,3.47
2022-07-28T09:34:46.540Z,5.85
2022-07-28T09:36:51.098Z,5.85
2022-07-28T09:38:56.944Z,9.95
2022-07-28T09:41:03.088Z,6.60
2022-07-28T09:43:07.046Z,4.03
2022-07-28T09:45:27.262Z,5.03
2022-07-28T09:47:33.389Z,4.53
2022-07-28T09:49:45.045Z,5.88
2022-07-28T09:52:02.711Z,5.07
2022-07-28T09:54:13.213Z,5.78
2022-07-28T09:56:18.861Z,3.25
2022-07-28T09:58:23.046Z,8.30
2022-07-28T10:00:31.897Z,4.53
2022-07-28T10:02:37.118Z,5.68
2022-07-28T10:04:42.348Z,7.57
2022-07-28T10:06:47.718Z,5.13
2022-07-28T10:08:52.885Z,5.25
2022-07-28T10:11:03.874Z,6.43
2022-07-28T10:13:07.828Z,6.75
2022-07-28T10:15:31.479Z,5.03
2022-07-28T10:17:36.305Z,4.03
2022-07-28T10:19:40.931Z,6.50
2022-07-28T10:21:46.779Z,8.38
2022-07-28T10:23:52.396Z,4.45
2022-07-28T10:25:58.208Z,7.68
2022-07-28T10:28:03.421Z,8.88
2022-07-28T10:30:09.261Z,4.95
2022-07-28T10:32:13.242Z,5.15
2022-07-28T10:34:25.013Z,7.38
2022-07-28T10:36:29.839Z,9.20
2022-07-28T10:38:37.912Z,10.90
2022-07-28T10:40:44.290Z,7.20
2022-07-28T10:42:48.263Z,6.97
2022-07-28T10:44:54.528Z,5.55
2022-07-28T10:46:59.483Z,7.03
2022-07-28T10:49:05.414Z,7.13
2022-07-28T10:51:14.170Z,8.98
2022-07-28T10:53:28.282Z,5.88
2022-07-28T10:55:46.459Z,3.50
2022-07-28T10:58:11.417Z,8.20
2022-07-28T11:00:26.420Z,11.65
2022-07-28T11:02:48.955Z,9.05
2022-07-28T11:04:55.673Z,7.03
2022-07-28T11:07:12.249Z,4.43
2022-07-28T11:09:24.622Z,5.38
2022-07-28T11:11:51.282Z,4.85
2022-07-28T11:13:55.949Z,2.92
2022-07-28T11:16:19.113Z,6.88
2022-07-28T11:18:24.134Z,5.88
2022-07-28T11:21:00.836Z,6.95
2022-07-28T11:23:38.140Z,6.57
2022-07-28T11:25:42.339Z,5.10
2022-07-28T11:28:04.812Z,6.63
2022-07-28T11:30:08.730Z,6.72
2022-07-28T11:32:12.684Z,4.32
2022-07-28T11:34:18.840Z,9.50
2022-07-28T11:36:23.411Z,6.35
2022-07-28T11:38:27.869Z,14.90
2022-07-28T11:40:33.416Z,6.05
2022-07-28T11:42:37.525Z,9.68
2022-07-28T11:44:43.028Z,5.85
2022-07-28T11:46:46.986Z,5.95
2022-07-28T11:49:19.037Z,8.73
2022-07-28T11:51:23.681Z,5.25
2022-07-28T11:53:34.258Z,6.65
2022-07-28T11:55:55.322Z,8.35
2022-07-28T11:58:03.730Z,6.22
2022-07-28T12:00:10.670Z,6.25
2022-07-28T12:02:19.178Z,10.05
2022-07-28T12:04:28.034Z,4.75
2022-07-28T12:06:37.662Z,4.95
2022-07-28T12:08:57.020Z,8.02
2022-07-28T12:11:00.967Z,10.93
2022-07-28T12:13:07.551Z,6.50
2022-07-28T12:15:16.592Z,6.88
2022-07-28T12:17:20.314Z,10.27
2022-07-28T12:19:32.859Z,7.30
2022-07-28T12:21:46.415Z,5.30
2022-07-28T12:23:55.620Z,8.77
2022-07-28T12:26:01.851Z,6.18
2022-07-28T12:28:18.881Z,8.77
2022-07-28T12:30:26.754Z,6.82
2022-07-28T12:32:35.636Z,8.48
2022-07-28T12:34:43.819Z,8.82
2022-07-28T12:36:48.341Z,8.73
2022-07-28T12:38:52.895Z,6.32
2022-07-28T12:40:56.874Z,12.30
2022-07-28T12:43:00.470Z,3.80
2022-07-28T12:45:07.673Z,7.10
2022-07-28T12:47:14.316Z,5.00
2022-07-28T12:49:24.557Z,7.65
2022-07-28T12:51:33.049Z,6.65
2022-07-28T12:53:36.929Z,6.53
2022-07-28T12:55:43.783Z,4.25
2022-07-28T12:57:50.999Z,4.15
2022-07-28T13:00:08.075Z,4.90
2022-07-28T13:02:13.572Z,8.13
2022-07-28T13:04:18.521Z,7.82
2022-07-28T13:06:22.794Z,4.90
2022-07-28T13:08:38.551Z,3.40
2022-07-28T13:10:49.023Z,5.53
2022-07-28T13:13:02.358Z,5.43
2022-07-28T13:15:16.491Z,8.85
2022-07-28T13:17:22.620Z,6.25
2022-07-28T13:19:26.549Z,7.20
2022-07-28T13:21:58.406Z,7.28
2022-07-28T13:24:03.494Z,3.60
2022-07-28T13:26:08.878Z,4.43
2022-07-28T13:28:28.937Z,5.25
2022-07-28T13:30:32.608Z,5.78
2022-07-28T13:32:38.165Z,6.80
2022-07-28T13:34:47.165Z,2.70
2022-07-28T13:36:50.889Z,5.05
2022-07-28T13:38:54.601Z,4.50
2022-07-28T13:40:58.484Z,6.85
2022-07-28T13:43:02.173Z,7.03
2022-07-28T13:45:30.279Z,4.85
2022-07-28T13:47:38.873Z,5.18
2022-07-28T13:49:44.873Z,5.47
2022-07-28T13:51:51.049Z,9.27
2022-07-28T13:53:55.664Z,3.42
2022-07-28T13:56:00.300Z,10.23
2022-07-28T13:58:08.455Z,7.28
2022-07-28T14:00:13.836Z,5.53
2022-07-28T14:02:17.526Z,5.63
2022-07-28T14:04:22.001Z,2.88
2022-07-28T14:06:28.065Z,6.90
2022-07-28T14:08:31.909Z,5.40
2022-07-28T14:10:36.020Z,4.78
2022-07-28T14:12:40.370Z,4.70
2022-07-28T14:14:48.532Z,4.85
2022-07-28T14:16:54.369Z,5.38
2022-07-28T14:18:58.876Z,5.75
2022-07-28T14:21:03.539Z,7.72
2022-07-28T14:23:08.742Z,5.13
2022-07-28T14:25:13.509Z,5.40
2022-07-28T14:27:28.944Z,4.40
2022-07-28T14:29:33.108Z,3.83
2022-07-28T14:31:37.097Z,4.53
2022-07-28T14:33:46.355Z,2.42
2022-07-28T14:35:51.146Z,4.00
2022-07-28T14:40:20.137Z,2.58
2022-07-28T14:42:24.334Z,5.15
2022-07-28T14:44:28.403Z,6.50
2022-07-28T14:46:33.369Z,4.28
2022-07-28T14:48:37.120Z,7.25
2022-07-28T14:50:41.060Z,5.63
2022-07-28T14:52:45.301Z,3.60
2022-07-28T14:54:49.433Z,6.03
2022-07-28T14:56:54.645Z,5.20
2022-07-28T14:58:58.134Z,12.73
2022-07-28T15:01:02.142Z,4.93
2022-07-28T15:03:06.145Z,4.22
2022-07-28T15:05:11.351Z,4.97
2022-07-28T15:07:15.147Z,5.30
2022-07-28T15:09:18.888Z,7.38
2022-07-28T15:11:22.453Z,6.22
2022-07-28T15:13:28.637Z,7.55
2022-07-28T15:15:32.212Z,7.32
2022-07-28T15:17:36.131Z,4.60
2022-07-28T15:19:39.974Z,3.65
2022-07-28T15:21:45.870Z,5.05
2022-07-28T15:23:49.493Z,9.07
2022-07-28T15:25:53.911Z,5.18
2022-07-28T15:27:58.039Z,8.23
2022-07-28T15:30:03.506Z,6.10
2022-07-28T15:32:10.710Z,6.00
2022-07-28T15:34:17.106Z,6.28
2022-07-28T15:36:20.904Z,6.82
2022-07-28T15:38:24.631Z,4.93
2022-07-28T15:40:28.167Z,7.63
2022-07-28T15:42:31.725Z,6.20
2022-07-28T15:44:35.357Z,4.75
2022-07-28T15:46:40.605Z,8.02
2022-07-28T15:48:45.378Z,6.05
2022-07-28T15:50:49.342Z,4.60
2022-07-28T15:52:53.066Z,7.70
2022-07-28T15:54:57.059Z,5.15
2022-07-28T15:57:00.604Z,8.63
2022-07-28T15:59:06.615Z,4.95
2022-07-28T16:01:10.174Z,12.70
2022-07-28T16:03:15.795Z,5.20
2022-07-28T16:05:19.601Z,6.05
2022-07-28T16:07:24.666Z,5.57
2022-07-28T16:09:45.338Z,6.55
2022-07-28T16:11:50.615Z,7.35
2022-07-28T16:13:54.342Z,7.80
2022-07-28T16:15:58.144Z,6.95
2022-07-28T16:18:01.918Z,7.30
2022-07-28T16:20:10.430Z,4.45
2022-07-28T16:22:14.118Z,6.18
2022-07-28T16:24:18.254Z,6.15
2022-07-28T16:26:21.977Z,3.35
2022-07-28T16:28:25.640Z,7.63
2022-07-28T16:30:31.036Z,7.45
2022-07-28T16:32:35.147Z,12.10
2022-07-28T16:34:38.989Z,8.73
2022-07-28T16:36:44.215Z,7.78
2022-07-28T16:38:47.977Z,5.03
2022-07-28T16:40:51.898Z,6.88
2022-07-28T16:42:55.475Z,7.93
2022-07-28T16:44:59.626Z,6.72
2022-07-28T16:47:03.334Z,7.80
2022-07-28T16:49:07.085Z,7.72
2022-07-28T16:51:11.752Z,6.55
2022-07-28T16:53:16.926Z,7.32
2022-07-28T16:55:23.584Z,9.23
2022-07-28T16:57:27.711Z,11.43
2022-07-28T16:59:37.696Z,5.63
2022-07-28T17:01:53.341Z,9.50
2022-07-28T17:03:57.082Z,4.40
2022-07-28T17:06:00.689Z,5.38
2022-07-28T17:08:05.171Z,6.57
2022-07-28T17:10:11.850Z,6.05
2022-07-28T17:12:15.403Z,8.55
2022-07-28T17:14:19.259Z,8.00
2022-07-28T17:16:23.483Z,5.28
2022-07-28T17:18:27.710Z,6.30
2022-07-28T17:20:32.512Z,10.85
2022-07-28T17:22:36.249Z,9.93
2022-07-28T17:24:39.904Z,9.80
2022-07-28T17:29:11.872Z,8.57
2022-07-28T17:31:15.709Z,8.07
2022-07-28T17:33:19.619Z,6.53
2022-07-28T17:35:34.267Z,13.60
2022-07-28T17:37:38.982Z,7.72
2022-07-28T17:39:42.806Z,7.38
2022-07-28T17:41:47.917Z,7.82
2022-07-28T17:43:51.739Z,8.93
2022-07-28T17:45:56.522Z,7.13
2022-07-28T17:48:00.645Z,9.25
2022-07-28T17:50:04.940Z,12.90
2022-07-28T17:52:09.168Z,8.95
2022-07-28T17:54:15.955Z,8.45
2022-07-28T17:56:20.515Z,7.60
2022-07-28T17:58:32.676Z,8.63
2022-07-28T18:00:36.765Z,8.05
2022-07-28T18:02:40.816Z,8.05
2022-07-28T18:04:45.083Z,11.50
2022-07-28T18:06:48.954Z,8.45
2022-07-28T18:08:52.482Z,7.55
2022-07-28T18:10:56.425Z,8.93
2022-07-28T18:13:00.567Z,13.98
2022-07-28T18:15:06.556Z,7.10
2022-07-28T18:17:10.771Z,7.65
2022-07-28T18:19:14.935Z,8.25
2022-07-28T18:21:18.574Z,9.25
2022-07-28T18:23:23.617Z,12.52
2022-07-28T18:25:29.555Z,13.30
2022-07-28T18:27:33.330Z,8.60
2022-07-28T18:29:38.906Z,18.63
2022-07-28T18:31:46.857Z,11.55
2022-07-28T18:33:51.031Z,8.95
2022-07-28T18:35:54.984Z,5.78
2022-07-28T18:37:59.680Z,6.38
2022-07-28T18:40:04.536Z,8.63
2022-07-28T18:42:08.557Z,19.52
2022-07-28T18:44:12.722Z,9.25
2022-07-28T18:46:17.298Z,12.27
2022-07-28T18:48:25.714Z,6.25
2022-07-28T18:50:31.486Z,10.10
2022-07-28T18:52:36.403Z,11.32
2022-07-28T18:54:40.526Z,7.78
2022-07-28T18:56:44.691Z,10.93
2022-07-28T18:58:51.924Z,10.27
2022-07-28T19:00:56.295Z,10.48
2022-07-28T19:03:00.482Z,13.25
2022-07-28T19:05:06.686Z,11.48
2022-07-28T19:07:10.952Z,9.30
2022-07-28T19:09:14.898Z,5.63
2022-07-28T19:11:20.025Z,8.18
2022-07-28T19:13:24.377Z,6.45
2022-07-28T19:15:28.875Z,9.98
2022-07-28T19:17:34.154Z,7.90
2022-07-28T19:19:38.469Z,12.73
2022-07-28T19:21:44.532Z,9.35
2022-07-28T19:23:49.384Z,5.93
2022-07-28T19:25:53.590Z,11.05
2022-07-28T19:27:57.984Z,12.95
2022-07-28T19:30:02.529Z,9.15
2022-07-28T19:32:08.518Z,8.50
2022-07-28T19:34:13.312Z,5.50
2022-07-28T19:36:17.857Z,10.85
2022-07-28T19:38:23.359Z,9.05
2022-07-28T19:40:29.443Z,10.90
2022-07-28T19:42:35.368Z,7.90
2022-07-28T19:44:39.595Z,12.00
2022-07-28T19:46:45.040Z,10.80
2022-07-28T19:48:49.289Z,12.95
2022-07-28T19:50:53.707Z,7.32
2022-07-28T19:52:58.462Z,12.18
2022-07-28T19:55:04.240Z,11.70
2022-07-28T19:57:12.379Z,8.55
2022-07-28T19:59:18.686Z,13.85
2022-07-28T20:01:22.930Z,15.07
2022-07-28T20:04:01.415Z,9.13
2022-07-28T20:05:51.109Z,9.18
2022-07-28T20:07:55.300Z,11.43
2022-07-28T20:09:59.560Z,6.28
2022-07-28T20:12:05.324Z,11.90
2022-07-28T20:14:11.972Z,10.18
2022-07-28T20:16:16.218Z,11.05
2022-07-28T20:18:20.464Z,9.02
2022-07-28T20:20:24.604Z,6.90
2022-07-28T20:22:28.775Z,9.57
2022-07-28T20:24:33.119Z,10.40
2022-07-28T20:26:37.575Z,12.80
2022-07-28T20:28:44.283Z,10.75
2022-07-28T20:30:49.590Z,12.82
2022-07-28T20:32:54.044Z,17.73
2022-07-28T20:34:58.459Z,11.38
2022-07-28T20:37:02.570Z,10.38
2022-07-28T20:39:34.286Z,8.18
2022-07-28T20:41:35.550Z,7.03
2022-07-28T20:43:39.808Z,7.85
2022-07-28T20:45:46.496Z,11.75
2022-07-28T20:47:50.516Z,13.85
2022-07-28T20:49:55.535Z,8.85
2022-07-28T20:52:00.384Z,6.57
2022-07-28T20:54:04.021Z,10.13
2022-07-28T20:56:08.547Z,10.38
2022-07-28T20:58:13.462Z,10.77
2022-07-28T21:00:19.301Z,9.38
2022-07-28T21:02:25.825Z,10.65
2022-07-28T21:04:29.782Z,8.38
2022-07-28T21:06:34.797Z,12.55
2022-07-28T21:08:41.766Z,10.77
2022-07-28T21:10:46.148Z,9.50
2022-07-28T21:12:50.013Z,19.13
2022-07-28T21:14:54.631Z,9.95
2022-07-28T21:16:58.544Z,11.82
2022-07-28T21:19:06.163Z,9.65
2022-07-28T21:21:10.422Z,12.07
2022-07-28T21:23:14.819Z,10.27
2022-07-28T21:25:18.844Z,10.43
2022-07-28T21:27:22.777Z,8.85
2022-07-28T21:31:30.751Z,9.80
2022-07-28T21:33:34.882Z,10.68
2022-07-28T21:35:43.694Z,9.65
2022-07-28T21:37:48.026Z,7.82
2022-07-28T21:39:52.233Z,9.30
2022-07-28T21:41:56.133Z,10.75
2022-07-28T21:44:04.172Z,8.15
2022-07-28T21:46:08.392Z,10.15
2022-07-28T21:48:12.445Z,10.68
2022-07-28T21:50:16.920Z,14.60
2022-07-28T21:52:22.968Z,15.25
2022-07-28T21:54:27.055Z,9.73
2022-07-28T21:56:31.836Z,13.35
2022-07-28T21:58:36.476Z,12.77
2022-07-28T22:00:40.552Z,7.68
2022-07-28T22:02:44.644Z,12.18
2022-07-28T22:04:48.605Z,11.23
2022-07-28T22:06:52.556Z,15.15
2022-07-28T22:08:58.118Z,10.55
2022-07-28T22:11:02.960Z,14.02
2022-07-28T22:13:07.198Z,10.20
2022-07-28T22:15:11.827Z,11.88
2022-07-28T22:17:16.203Z,9.00
2022-07-28T22:19:20.763Z,12.27
2022-07-28T22:21:25.103Z,9.93
2022-07-28T22:23:30.222Z,9.25
2022-07-28T22:25:36.776Z,11.93
2022-07-28T22:27:41.013Z,11.57
2022-07-28T22:29:50.147Z,15.57
2022-07-28T22:31:59.355Z,9.93
2022-07-28T22:34:04.236Z,12.43
2022-07-28T22:36:09.548Z,11.52
2022-07-28T22:38:14.015Z,9.75
2022-07-28T22:40:19.098Z,11.90
2022-07-28T22:42:26.418Z,10.45
2022-07-28T22:44:31.479Z,14.32
2022-07-28T22:46:38.339Z,8.40
2022-07-28T22:48:42.560Z,10.10
2022-07-28T22:50:47.466Z,12.40
2022-07-28T22:52:51.458Z,8.00
2022-07-28T22:54:56.998Z,13.30
2022-07-28T22:57:00.825Z,10.68
2022-07-28T22:59:06.775Z,15.20
2022-07-28T23:01:10.450Z,10.13
2022-07-28T23:03:15.901Z,9.45
2022-07-28T23:05:20.750Z,10.00
2022-07-28T23:07:51.068Z,11.60
2022-07-28T23:09:48.322Z,12.70
2022-07-28T23:11:55.962Z,8.30
2022-07-28T23:14:00.059Z,7.85
2022-07-28T23:16:05.749Z,6.95
2022-07-28T23:18:09.382Z,5.93
2022-07-28T23:20:14.021Z,6.43
2022-07-28T23:22:19.803Z,10.45
2022-07-28T23:24:23.759Z,8.77
2022-07-28T23:26:27.636Z,6.07
2022-07-28T23:28:31.946Z,5.70
2022-07-28T23:30:36.590Z,9.13
2022-07-28T23:32:41.862Z,12.07
2022-07-28T23:34:46.346Z,9.50
2022-07-28T23:36:49.975Z,10.43
2022-07-28T23:38:54.157Z,9.40
2022-07-28T23:40:57.826Z,9.68
2022-07-28T23:43:01.872Z,13.73
2022-07-28T23:45:06.346Z,11.05
2022-07-28T23:47:10.135Z,6.47
2022-07-28T23:49:15.528Z,6.25
2022-07-28T23:51:19.395Z,7.47
2022-07-28T23:53:23.274Z,5.88
2022-07-28T23:55:26.942Z,7.40
2022-07-28T23:57:31.551Z,5.00
2022-07-28T23:59:35.618Z,8.00
